createdAt,value
2018-06-20T05:15:59.088Z,17.67
2018-06-20T05:18:27.321Z,16.50
2018-06-20T05:20:55.744Z,17.17
2018-06-20T05:23:24.769Z,17.53
2018-06-20T05:25:52.991Z,17.00
2018-06-20T05:28:21.111Z,17.70
2018-06-20T05:30:50.985Z,17.40
2018-06-20T05:33:19.587Z,16.43
2018-06-20T05:35:47.922Z,19.20
2018-06-20T05:38:16.390Z,17.23
2018-06-20T05:40:45.292Z,16.30
2018-06-20T05:43:13.639Z,15.97
2018-06-20T05:45:41.477Z,16.07
2018-06-20T05:48:09.439Z,15.83
2018-06-20T05:50:37.401Z,15.10
2018-06-20T05:53:05.457Z,15.87
2018-06-20T05:55:33.473Z,15.17
2018-06-20T05:58:01.672Z,14.60
2018-06-20T06:00:29.766Z,16.40
2018-06-20T06:02:57.860Z,17.20
2018-06-20T06:05:26.008Z,19.17
2018-06-20T06:07:53.890Z,15.83
2018-06-20T06:10:22.003Z,14.93
2018-06-20T06:12:49.964Z,14.17
2018-06-20T06:15:18.164Z,15.47
2018-06-20T06:17:46.287Z,15.23
2018-06-20T06:20:14.479Z,14.80
2018-06-20T06:22:42.904Z,14.87
2018-06-20T06:25:10.963Z,13.47
2018-06-20T06:27:39.059Z,13.33
2018-06-20T06:30:07.259Z,13.80
2018-06-20T06:32:35.554Z,14.10
2018-06-20T06:35:03.503Z,14.57
2018-06-20T06:37:32.700Z,13.27
2018-06-20T06:40:00.533Z,13.13
2018-06-20T06:42:29.170Z,12.00
2018-06-20T06:44:57.143Z,13.50
2018-06-20T06:47:25.239Z,13.63
2018-06-20T06:49:53.678Z,12.93
2018-06-20T06:52:21.676Z,13.30
2018-06-20T06:54:49.782Z,13.07
2018-06-20T06:57:18.215Z,13.70
2018-06-20T06:59:46.531Z,13.77
2018-06-20T07:02:15.078Z,13.20
2018-06-20T07:04:43.410Z,13.93
2018-06-20T07:07:11.605Z,13.10
2018-06-20T07:09:39.905Z,13.13
2018-06-20T07:12:08.398Z,13.33
2018-06-20T07:14:36.327Z,10.53
2018-06-20T07:17:04.270Z,11.90
2018-06-20T07:19:32.568Z,12.40
2018-06-20T07:22:01.637Z,10.10
2018-06-20T07:24:29.836Z,11.67
2018-06-20T07:26:57.878Z,11.33
2018-06-20T07:29:26.099Z,11.80
2018-06-20T07:31:54.237Z,12.07
2018-06-20T07:34:22.569Z,11.83
2018-06-20T07:36:52.317Z,11.90
2018-06-20T07:39:20.643Z,10.57
2018-06-20T07:41:48.701Z,10.60
2018-06-20T07:44:16.566Z,11.60
2018-06-20T07:46:44.676Z,10.93
2018-06-20T07:49:12.721Z,11.20
2018-06-20T07:51:41.056Z,10.27
2018-06-20T07:54:09.209Z,10.20
2018-06-20T07:56:37.292Z,10.03
2018-06-20T07:59:09.773Z,10.13
2018-06-20T08:01:54.477Z,9.63
2018-06-20T08:04:28.013Z,10.00
2018-06-20T08:07:01.657Z,11.40
2018-06-20T08:09:35.079Z,9.70
2018-06-20T08:12:08.794Z,10.17
2018-06-20T08:14:42.285Z,9.53
2018-06-20T08:17:15.643Z,7.67
2018-06-20T08:19:49.945Z,8.83
2018-06-20T08:22:19.496Z,14.50
2018-06-20T08:24:58.057Z,8.47
2018-06-20T08:27:26.279Z,8.73
2018-06-20T08:29:54.207Z,7.73
2018-06-20T08:32:22.306Z,8.70
2018-06-20T08:34:50.996Z,8.70
2018-06-20T08:37:19.170Z,8.70
2018-06-20T08:39:47.053Z,7.87
2018-06-20T08:42:15.414Z,8.30
2018-06-20T08:44:43.561Z,7.53
2018-06-20T08:47:11.519Z,8.40
2018-06-20T08:49:40.954Z,7.70
2018-06-20T08:52:09.233Z,8.27
2018-06-20T08:54:37.377Z,8.67
2018-06-20T08:57:05.514Z,7.93
2018-06-20T08:59:33.663Z,7.13
2018-06-20T09:02:01.830Z,7.63
2018-06-20T09:04:35.442Z,8.73
2018-06-20T09:07:08.717Z,7.27
2018-06-20T09:09:42.319Z,8.37
2018-06-20T09:12:15.738Z,8.00
2018-06-20T09:14:49.273Z,8.10
2018-06-20T09:17:22.608Z,7.50
2018-06-20T09:19:52.791Z,7.27
2018-06-20T09:22:20.917Z,7.53
2018-06-20T09:24:49.083Z,7.13
2018-06-20T09:27:17.261Z,6.60
2018-06-20T09:29:45.947Z,6.67
2018-06-20T09:32:14.814Z,7.40
2018-06-20T09:34:43.251Z,6.47
2018-06-20T09:37:11.307Z,6.87
2018-06-20T09:39:39.837Z,7.23
2018-06-20T09:42:07.794Z,6.30
2018-06-20T09:44:35.911Z,6.50
2018-06-20T09:47:04.108Z,6.40
2018-06-20T09:49:31.968Z,6.40
2018-06-20T09:52:00.055Z,5.67
2018-06-20T09:54:27.891Z,5.93
2018-06-20T09:56:55.964Z,5.67
2018-06-20T09:59:29.421Z,5.77
2018-06-20T10:02:02.858Z,6.07
2018-06-20T10:04:36.284Z,6.40
2018-06-20T10:07:09.833Z,8.40
2018-06-20T10:09:43.247Z,5.80
2018-06-20T10:14:19.567Z,5.40
2018-06-20T10:16:47.708Z,5.70
2018-06-20T10:19:15.660Z,5.17
2018-06-20T10:21:43.899Z,4.73
2018-06-20T10:24:11.780Z,5.63
2018-06-20T10:26:39.722Z,4.37
2018-06-20T10:29:07.782Z,4.90
2018-06-20T10:31:36.026Z,5.37
2018-06-20T10:34:04.151Z,5.40
2018-06-20T10:36:32.218Z,5.43
2018-06-20T10:39:00.136Z,5.10
2018-06-20T10:41:32.592Z,4.93
2018-06-20T10:44:05.065Z,6.30
2018-06-20T10:46:38.641Z,5.60
2018-06-20T10:49:06.708Z,5.03
2018-06-20T10:51:34.851Z,5.20
2018-06-20T10:54:03.007Z,6.53
2018-06-20T10:58:40.046Z,5.53
2018-06-20T11:01:13.664Z,4.80
2018-06-20T11:03:48.166Z,6.33
2018-06-20T11:06:22.227Z,5.10
2018-06-20T11:08:55.731Z,8.30
2018-06-20T11:11:29.581Z,5.27
2018-06-20T11:13:57.729Z,5.60
2018-06-20T11:16:25.965Z,5.47
2018-06-20T11:18:55.422Z,4.90
2018-06-20T11:21:23.565Z,5.53
2018-06-20T11:23:51.994Z,5.17
2018-06-20T11:26:20.335Z,4.90
2018-06-20T11:28:48.227Z,5.80
2018-06-20T11:31:16.584Z,5.97
2018-06-20T11:33:44.834Z,6.23
2018-06-20T11:36:12.733Z,5.37
2018-06-20T11:38:40.896Z,6.20
2018-06-20T11:41:09.128Z,6.07
2018-06-20T11:43:37.298Z,5.83
2018-06-20T11:46:10.799Z,5.33
2018-06-20T11:48:38.890Z,5.93
2018-06-20T11:51:08.251Z,5.73
2018-06-20T11:53:36.365Z,5.73
2018-06-20T11:56:04.433Z,5.70
2018-06-20T11:58:38.027Z,8.47
2018-06-20T12:01:11.687Z,5.30
2018-06-20T12:03:45.567Z,5.23
2018-06-20T12:08:22.643Z,5.23
2018-06-20T12:10:56.238Z,5.03
2018-06-20T12:13:29.787Z,5.93
2018-06-20T12:16:03.255Z,5.97
2018-06-20T12:18:36.704Z,5.70
2018-06-20T12:21:09.921Z,5.17
2018-06-20T12:23:43.393Z,6.00
2018-06-20T12:26:17.003Z,5.03
2018-06-20T12:28:50.329Z,5.17
2018-06-20T12:31:23.876Z,4.93
2018-06-20T12:33:57.203Z,4.30
2018-06-20T12:36:30.824Z,5.00
2018-06-20T12:39:01.646Z,4.93
2018-06-20T12:41:35.571Z,5.27
2018-06-20T12:44:09.747Z,5.60
2018-06-20T12:47:42.485Z,5.30
2018-06-20T12:50:15.127Z,6.53
2018-06-20T12:52:43.770Z,5.10
2018-06-20T12:55:13.119Z,5.60
2018-06-20T12:57:41.540Z,5.40
2018-06-20T13:00:09.614Z,4.73
2018-06-20T13:02:37.468Z,6.47
2018-06-20T13:05:05.587Z,6.03
2018-06-20T13:07:33.771Z,5.20
2018-06-20T13:10:02.770Z,5.37
2018-06-20T13:12:30.869Z,5.30
2018-06-20T13:14:59.437Z,5.40
2018-06-20T13:17:27.501Z,5.90
2018-06-20T13:19:55.332Z,4.97
2018-06-20T13:22:23.787Z,4.93
2018-06-20T13:24:51.962Z,5.63
2018-06-20T13:27:25.277Z,5.10
2018-06-20T13:29:58.985Z,5.00
2018-06-20T13:32:32.430Z,4.70
2018-06-20T13:35:06.046Z,4.93
2018-06-20T13:37:39.449Z,5.13
2018-06-20T13:40:13.013Z,5.60
2018-06-20T13:42:46.680Z,5.83
2018-06-20T13:45:20.334Z,5.33
2018-06-20T13:47:54.087Z,5.40
2018-06-20T13:50:21.898Z,5.60
2018-06-20T13:52:50.120Z,5.33
2018-06-20T13:55:18.338Z,5.77
2018-06-20T13:57:46.544Z,5.50
2018-06-20T14:00:14.444Z,8.77
2018-06-20T14:02:42.579Z,6.27
2018-06-20T14:05:10.553Z,5.40
2018-06-20T14:07:39.220Z,5.73
2018-06-20T14:10:07.292Z,7.13
2018-06-20T14:12:35.306Z,6.67
2018-06-20T14:15:03.691Z,6.80
2018-06-20T14:17:31.570Z,7.63
2018-06-20T14:20:05.418Z,8.37
2018-06-20T14:22:33.271Z,7.20
2018-06-20T14:25:01.387Z,6.70
2018-06-20T14:27:31.423Z,7.93
2018-06-20T14:30:00.179Z,6.40
2018-06-20T14:34:40.149Z,6.33
2018-06-20T14:37:13.660Z,6.90
2018-06-20T14:39:47.254Z,7.70
2018-06-20T14:42:20.686Z,7.53
2018-06-20T14:44:48.685Z,6.80
2018-06-20T14:47:16.767Z,6.60
2018-06-20T14:49:44.880Z,5.93
2018-06-20T14:52:12.982Z,6.93
2018-06-20T14:54:40.883Z,6.67
2018-06-20T14:57:09.152Z,6.47
2018-06-20T14:59:37.469Z,6.83
2018-06-20T15:02:05.995Z,7.20
2018-06-20T15:04:34.191Z,7.40
2018-06-20T15:07:02.250Z,9.00
2018-06-20T15:09:30.507Z,7.10
2018-06-20T15:11:58.659Z,10.30
2018-06-20T15:14:26.826Z,8.53
2018-06-20T15:17:00.357Z,7.20
2018-06-20T15:19:28.453Z,8.00
2018-06-20T15:21:56.526Z,7.03
2018-06-20T15:24:26.550Z,8.60
2018-06-20T15:26:59.892Z,7.53
2018-06-20T15:29:33.473Z,6.50
2018-06-20T15:32:07.196Z,8.23
2018-06-20T15:34:41.593Z,6.80
2018-06-20T15:38:16.124Z,7.97
2018-06-20T15:40:45.226Z,7.00
2018-06-20T15:43:13.514Z,7.83
2018-06-20T15:45:41.576Z,7.23
2018-06-20T15:48:10.164Z,6.30
2018-06-20T15:50:39.101Z,7.40
2018-06-20T15:53:07.292Z,7.00
2018-06-20T15:55:35.521Z,6.30
2018-06-20T15:58:03.455Z,7.07
2018-06-20T16:00:31.983Z,7.33
2018-06-20T16:03:00.227Z,7.10
2018-06-20T16:05:28.383Z,6.47
2018-06-20T16:07:56.674Z,7.53
2018-06-20T16:10:25.300Z,7.23
2018-06-20T16:12:53.375Z,7.67
2018-06-20T16:15:21.327Z,7.07
2018-06-20T16:17:49.638Z,8.00
2018-06-20T16:20:24.264Z,7.47
2018-06-20T16:22:57.799Z,7.57
2018-06-20T16:25:31.428Z,7.97
2018-06-20T16:28:05.034Z,7.93
2018-06-20T16:30:34.688Z,7.50
2018-06-20T16:33:02.974Z,9.37
2018-06-20T16:35:31.119Z,23.30
2018-06-20T16:37:59.340Z,14.73
2018-06-20T16:40:27.269Z,22.80
2018-06-20T16:42:55.295Z,19.53
2018-06-20T16:45:23.655Z,9.10
2018-06-20T16:47:51.721Z,10.43
2018-06-20T16:50:19.862Z,9.90
2018-06-20T16:52:47.901Z,7.80
2018-06-20T16:55:16.491Z,7.60
2018-06-20T16:57:44.625Z,10.00
2018-06-20T17:00:12.696Z,10.73
2018-06-20T17:02:42.207Z,9.07
2018-06-20T17:05:10.850Z,8.30
2018-06-20T17:07:38.985Z,10.50
2018-06-20T17:10:07.125Z,7.70
2018-06-20T17:12:40.517Z,8.87
2018-06-20T17:15:14.125Z,10.10
2018-06-20T17:17:47.603Z,18.90
2018-06-20T17:20:20.998Z,12.00
2018-06-20T17:22:54.683Z,11.57
2018-06-20T17:25:26.931Z,8.60
2018-06-20T17:27:55.173Z,7.33
2018-06-20T17:30:23.266Z,8.60
2018-06-20T17:32:51.407Z,8.27
2018-06-20T17:35:19.523Z,9.53
2018-06-20T17:37:48.108Z,7.53
2018-06-20T17:40:16.181Z,9.30
2018-06-20T17:42:44.265Z,11.10
2018-06-20T17:45:12.763Z,8.40
2018-06-20T17:47:41.057Z,8.27
2018-06-20T17:50:09.150Z,9.30
2018-06-20T17:52:37.182Z,8.00
2018-06-20T17:55:05.037Z,8.07
2018-06-20T17:57:33.774Z,9.50
2018-06-20T18:00:01.809Z,8.60
2018-06-20T18:02:29.658Z,8.60
2018-06-20T18:05:03.098Z,8.60
2018-06-20T18:07:36.401Z,8.60
2018-06-20T18:10:10.218Z,14.00
2018-06-20T18:12:43.919Z,10.37
2018-06-20T18:15:17.409Z,9.87
2018-06-20T18:17:45.415Z,8.57
2018-06-20T18:20:13.522Z,8.87
2018-06-20T18:23:44.200Z,9.07
2018-06-20T18:26:12.296Z,9.50
2018-06-20T18:28:40.349Z,7.97
2018-06-20T18:31:08.560Z,8.53
2018-06-20T18:33:36.601Z,7.73
2018-06-20T18:36:04.750Z,7.50
2018-06-20T18:38:32.880Z,8.60
2018-06-20T18:41:00.920Z,8.43
2018-06-20T18:43:28.982Z,7.83
2018-06-20T18:45:57.083Z,8.33
2018-06-20T18:48:27.155Z,7.37
2018-06-20T18:50:55.657Z,8.97
2018-06-20T18:53:23.829Z,7.50
2018-06-20T18:55:51.891Z,9.87
2018-06-20T18:58:25.572Z,8.30
2018-06-20T19:03:00.421Z,10.93
2018-06-20T19:05:33.926Z,7.83
2018-06-20T19:08:07.205Z,9.03
2018-06-20T19:10:35.175Z,8.97
2018-06-20T19:13:03.253Z,10.77
2018-06-20T19:15:31.430Z,9.87
2018-06-20T19:17:59.539Z,9.37
2018-06-20T19:20:28.005Z,8.40
2018-06-20T19:22:56.154Z,9.40
2018-06-20T19:25:24.306Z,9.20
2018-06-20T19:27:52.105Z,8.93
2018-06-20T19:30:20.581Z,9.57
2018-06-20T19:32:48.740Z,9.00
2018-06-20T19:35:16.859Z,8.97
2018-06-20T19:37:44.897Z,8.30
2018-06-20T19:40:13.289Z,8.93
2018-06-20T19:42:41.350Z,10.13
2018-06-20T19:45:09.566Z,9.07
2018-06-20T19:47:37.605Z,9.70
2018-06-20T19:50:06.102Z,9.80
2018-06-20T19:52:34.150Z,9.80
2018-06-20T19:55:02.233Z,9.70
2018-06-20T19:57:30.301Z,10.23
2018-06-20T19:59:58.568Z,10.53
2018-06-20T20:02:26.535Z,10.30
2018-06-20T20:04:54.449Z,11.97
2018-06-20T20:07:22.570Z,10.83
2018-06-20T20:09:50.625Z,28.50
2018-06-20T20:12:18.629Z,15.53
2018-06-20T20:14:46.448Z,12.67
2018-06-20T20:17:14.261Z,13.63
2018-06-20T20:19:42.231Z,13.50
2018-06-20T20:22:10.620Z,13.80
2018-06-20T20:24:38.965Z,13.50
2018-06-20T20:27:07.128Z,13.00
2018-06-20T20:29:35.292Z,14.77
2018-06-20T20:32:03.159Z,15.70
2018-06-20T20:34:31.021Z,12.83
2018-06-20T20:36:59.061Z,12.77
2018-06-20T20:39:27.266Z,11.90
2018-06-20T20:41:55.394Z,12.03
2018-06-20T20:44:23.250Z,12.00
2018-06-20T20:46:51.073Z,11.63
2018-06-20T20:49:19.164Z,10.63
2018-06-20T20:51:47.315Z,11.37
2018-06-20T20:54:15.467Z,11.67
2018-06-20T20:56:43.523Z,11.50
2018-06-20T20:59:11.392Z,11.37
2018-06-20T21:01:39.497Z,10.80
2018-06-20T21:04:07.598Z,10.80
2018-06-20T21:06:36.811Z,11.90
2018-06-20T21:09:05.801Z,11.30
2018-06-20T21:11:34.092Z,11.90
2018-06-20T21:14:02.852Z,11.90
2018-06-20T21:16:30.969Z,10.27
2018-06-20T21:18:59.808Z,10.80
2018-06-20T21:21:28.280Z,10.53
2018-06-20T21:23:56.371Z,11.33
2018-06-20T21:26:24.522Z,9.60
2018-06-20T21:28:53.005Z,12.13
2018-06-20T21:31:21.541Z,10.77
2018-06-20T21:33:51.618Z,10.27
2018-06-20T21:36:19.821Z,11.30
2018-06-20T21:38:48.194Z,11.40
2018-06-20T21:41:16.045Z,11.37
2018-06-20T21:43:44.117Z,11.13
2018-06-20T21:46:12.314Z,12.83
2018-06-20T21:48:40.406Z,13.40
2018-06-20T21:51:08.306Z,12.67
2018-06-20T21:53:36.149Z,11.87
2018-06-20T21:56:04.272Z,12.93
2018-06-20T21:58:32.666Z,13.50
2018-06-20T22:01:00.731Z,12.53
2018-06-20T22:03:28.788Z,12.87
2018-06-20T22:05:56.841Z,13.83
2018-06-20T22:08:24.882Z,13.23
2018-06-20T22:10:52.909Z,12.50
2018-06-20T22:13:21.151Z,13.10
2018-06-20T22:15:49.009Z,13.30
2018-06-20T22:18:17.108Z,15.17
2018-06-20T22:20:45.152Z,12.43
2018-06-20T22:23:13.366Z,11.70
2018-06-20T22:25:41.647Z,12.70
2018-06-20T22:28:09.647Z,12.93
2018-06-20T22:30:37.543Z,12.90
2018-06-20T22:33:05.715Z,12.80
2018-06-20T22:35:33.576Z,13.43
2018-06-20T22:38:01.422Z,13.60
2018-06-20T22:40:29.247Z,14.90
2018-06-20T22:42:57.321Z,14.40
2018-06-20T22:45:25.705Z,13.80
2018-06-20T22:47:53.558Z,14.40
2018-06-20T22:50:21.625Z,14.67
2018-06-20T22:52:50.131Z,15.17
2018-06-20T22:55:18.358Z,13.33
2018-06-20T22:57:46.432Z,20.33
2018-06-20T23:00:14.715Z,19.47
2018-06-20T23:02:44.890Z,16.10
2018-06-20T23:05:13.022Z,17.00
2018-06-20T23:07:42.092Z,16.33
2018-06-20T23:10:10.173Z,15.77
2018-06-20T23:12:37.978Z,14.60
2018-06-20T23:15:06.255Z,13.10
2018-06-20T23:17:34.750Z,13.50
2018-06-20T23:20:03.027Z,12.40
2018-06-20T23:22:31.085Z,12.50
2018-06-20T23:24:59.114Z,13.13
2018-06-20T23:27:27.140Z,12.70
2018-06-20T23:29:55.167Z,13.47
2018-06-20T23:32:23.250Z,13.57
2018-06-20T23:34:51.343Z,13.53
2018-06-20T23:37:19.508Z,12.70
2018-06-20T23:39:47.845Z,12.10
2018-06-20T23:42:15.765Z,12.10
2018-06-20T23:44:43.613Z,12.30
2018-06-20T23:47:11.814Z,12.57
2018-06-20T23:49:39.615Z,11.00
2018-06-20T23:52:07.750Z,12.13
2018-06-20T23:54:35.860Z,12.40
2018-06-20T23:57:03.986Z,12.17
2018-06-20T23:59:32.055Z,12.47
